sensor_id;sensor_type;location;lat;lon;timestamp;pressure;altitude;pressure_sealevel;temperature;humidity
74422;BME280;62856;51.446;8.360;2023-08-31T00:01:08;97162.22;;;20.19;57.99
74422;BME280;62856;51.446;8.360;2023-08-31T00:03:34;97173.59;;;20.21;57.71
74422;BME280;62856;51.446;8.360;2023-08-31T00:06:03;97166.56;;;20.20;57.65
74422;BME280;62856;51.446;8.360;2023-08-31T00:08:29;97168.50;;;20.19;57.89
74422;BME280;62856;51.446;8.360;2023-08-31T00:10:59;97164.97;;;20.19;57.86
74422;BME280;62856;51.446;8.360;2023-08-31T00:13:28;97170.81;;;20.17;57.62
74422;BME280;62856;51.446;8.360;2023-08-31T00:15:57;97160.66;;;20.18;57.81
74422;BME280;62856;51.446;8.360;2023-08-31T00:18:23;97172.75;;;20.17;57.57
74422;BME280;62856;51.446;8.360;2023-08-31T00:20:49;97165.34;;;20.17;57.77
74422;BME280;62856;51.446;8.360;2023-08-31T00:23:15;97159.06;;;20.17;57.75
74422;BME280;62856;51.446;8.360;2023-08-31T00:25:40;97164.53;;;20.17;57.51
74422;BME280;62856;51.446;8.360;2023-08-31T00:28:08;97160.19;;;20.16;57.52
74422;BME280;62856;51.446;8.360;2023-08-31T00:30:34;97161.78;;;20.17;57.44
74422;BME280;62856;51.446;8.360;2023-08-31T00:33:00;97164.88;;;20.15;57.59
74422;BME280;62856;51.446;8.360;2023-08-31T00:35:26;97163.69;;;20.16;57.83
74422;BME280;62856;51.446;8.360;2023-08-31T00:37:55;97159.78;;;20.14;57.97
74422;BME280;62856;51.446;8.360;2023-08-31T00:40:24;97164.53;;;20.17;57.59
74422;BME280;62856;51.446;8.360;2023-08-31T00:42:50;97157.03;;;20.14;57.75
74422;BME280;62856;51.446;8.360;2023-08-31T00:45:15;97161.34;;;20.15;57.42
74422;BME280;62856;51.446;8.360;2023-08-31T00:47:41;97157.03;;;20.14;57.29
74422;BME280;62856;51.446;8.360;2023-08-31T00:50:07;97162.50;;;20.14;57.46
74422;BME280;62856;51.446;8.360;2023-08-31T00:52:33;97158.97;;;20.13;57.40
74422;BME280;62856;51.446;8.360;2023-08-31T00:55:00;97155.44;;;20.13;57.64
74422;BME280;62856;51.446;8.360;2023-08-31T00:57:30;97160.91;;;20.13;57.43
74422;BME280;62856;51.446;8.360;2023-08-31T00:59:55;97154.66;;;20.12;57.85
74422;BME280;62856;51.446;8.360;2023-08-31T01:07:52;97157.41;;;20.12;57.60
74422;BME280;62856;51.446;8.360;2023-08-31T01:10:29;97154.25;;;20.10;57.77
74422;BME280;62856;51.446;8.360;2023-08-31T01:13:03;97158.56;;;20.11;57.43
74422;BME280;62856;51.446;8.360;2023-08-31T01:15:30;97163.22;;;20.11;57.53
74422;BME280;62856;51.446;8.360;2023-08-31T01:17:58;97155.00;;;20.11;57.29
74422;BME280;62856;51.446;8.360;2023-08-31T01:20:34;97160.47;;;20.11;57.29
74422;BME280;62856;51.446;8.360;2023-08-31T01:23:06;97156.19;;;20.10;57.63
74422;BME280;62856;51.446;8.360;2023-08-31T01:25:32;97169.06;;;20.09;57.22
74422;BME280;62856;51.446;8.360;2023-08-31T01:27:59;97162.03;;;20.08;57.29
74422;BME280;62856;51.446;8.360;2023-08-31T01:30:24;97162.81;;;20.09;57.69
74422;BME280;62856;51.446;8.360;2023-08-31T01:32:50;97162.47;;;20.10;57.28
74422;BME280;62856;51.446;8.360;2023-08-31T01:35:17;97162.81;;;20.09;57.24
74422;BME280;62856;51.446;8.360;2023-08-31T01:37:49;97161.66;;;20.10;57.12
74422;BME280;62856;51.446;8.360;2023-08-31T01:42:48;97156.56;;;20.08;56.85
74422;BME280;62856;51.446;8.360;2023-08-31T01:45:19;97157.34;;;20.09;56.99
74422;BME280;62856;51.446;8.360;2023-08-31T01:47:46;97160.09;;;20.09;57.07
74422;BME280;62856;51.446;8.360;2023-08-31T01:50:11;97161.22;;;20.08;57.25
74422;BME280;62856;51.446;8.360;2023-08-31T01:52:37;97163.53;;;20.06;56.88
74422;BME280;62856;51.446;8.360;2023-08-31T01:55:03;97161.22;;;20.08;57.00
74422;BME280;62856;51.446;8.360;2023-08-31T01:57:28;97161.22;;;20.08;57.19
74422;BME280;62856;51.446;8.360;2023-08-31T01:59:54;97158.06;;;20.06;56.98
74422;BME280;62856;51.446;8.360;2023-08-31T02:02:19;97152.59;;;20.06;57.07
74422;BME280;62856;51.446;8.360;2023-08-31T02:04:46;97155.69;;;20.04;57.20
74422;BME280;62856;51.446;8.360;2023-08-31T02:07:11;97154.91;;;20.04;57.03
74422;BME280;62856;51.446;8.360;2023-08-31T02:09:37;97163.53;;;20.06;57.06
74422;BME280;62856;51.446;8.360;2023-08-31T02:12:02;97160.81;;;20.06;57.01
74422;BME280;62856;51.446;8.360;2023-08-31T02:14:29;97163.13;;;20.04;57.18
74422;BME280;62856;51.446;8.360;2023-08-31T02:16:55;97165.09;;;20.03;56.87
74422;BME280;62856;51.446;8.360;2023-08-31T02:19:20;97173.28;;;20.03;56.68
74422;BME280;62856;51.446;8.360;2023-08-31T02:21:45;97167.38;;;20.01;57.08
74422;BME280;62856;51.446;8.360;2023-08-31T02:24:11;97183.06;;;20.04;56.50
74422;BME280;62856;51.446;8.360;2023-08-31T02:26:36;97187.75;;;20.04;56.64
74422;BME280;62856;51.446;8.360;2023-08-31T02:29:03;97190.84;;;20.02;56.88
74422;BME280;62856;51.446;8.360;2023-08-31T02:31:28;97194.38;;;20.03;56.99
74422;BME280;62856;51.446;8.360;2023-08-31T02:33:53;97186.53;;;20.01;56.68
74422;BME280;62856;51.446;8.360;2023-08-31T02:36:19;97182.22;;;20.00;56.53
74422;BME280;62856;51.446;8.360;2023-08-31T02:38:45;97184.56;;;20.02;56.42
74422;BME280;62856;51.446;8.360;2023-08-31T02:41:11;97179.47;;;20.00;57.06
74422;BME280;62856;51.446;8.360;2023-08-31T02:43:37;97187.69;;;20.00;56.82
74422;BME280;62856;51.446;8.360;2023-08-31T02:46:03;97184.19;;;20.00;56.79
74422;BME280;62856;51.446;8.360;2023-08-31T02:48:29;97177.09;;;19.99;56.72
74422;BME280;62856;51.446;8.360;2023-08-31T02:50:58;97181.78;;;19.98;56.71
74422;BME280;62856;51.446;8.360;2023-08-31T02:53:29;97191.97;;;19.98;56.76
74422;BME280;62856;51.446;8.360;2023-08-31T02:55:54;97184.09;;;19.96;56.89
74422;BME280;62856;51.446;8.360;2023-08-31T02:58:20;97176.25;;;19.95;57.02
74422;BME280;62856;51.446;8.360;2023-08-31T03:00:45;97182.16;;;19.97;56.90
74422;BME280;62856;51.446;8.360;2023-08-31T03:03:17;97175.53;;;19.98;56.53
74422;BME280;62856;51.446;8.360;2023-08-31T03:05:42;97178.63;;;19.96;56.80
74422;BME280;62856;51.446;8.360;2023-08-31T03:08:08;97177.84;;;19.96;56.21
74422;BME280;62856;51.446;8.360;2023-08-31T03:10:33;97177.47;;;19.97;56.44
74422;BME280;62856;51.446;8.360;2023-08-31T03:12:59;97173.94;;;19.97;56.68
74422;BME280;62856;51.446;8.360;2023-08-31T03:15:24;97164.16;;;19.96;56.59
74422;BME280;62856;51.446;8.360;2023-08-31T03:17:50;97168.84;;;19.95;56.71
74422;BME280;62856;51.446;8.360;2023-08-31T03:20:15;97171.56;;;19.95;56.42
74422;BME280;62856;51.446;8.360;2023-08-31T03:22:40;97167.66;;;19.96;56.27
74422;BME280;62856;51.446;8.360;2023-08-31T03:25:06;97168.03;;;19.95;56.65
74422;BME280;62856;51.446;8.360;2023-08-31T03:27:32;97168.03;;;19.95;56.17
74422;BME280;62856;51.446;8.360;2023-08-31T03:29:57;97168.84;;;19.95;56.60
74422;BME280;62856;51.446;8.360;2023-08-31T03:32:23;97170.00;;;19.94;56.13
74422;BME280;62856;51.446;8.360;2023-08-31T03:34:48;97158.63;;;19.92;56.06
74422;BME280;62856;51.446;8.360;2023-08-31T03:37:13;97167.28;;;19.94;55.92
74422;BME280;62856;51.446;8.360;2023-08-31T03:39:38;97163.75;;;19.94;56.26
74422;BME280;62856;51.446;8.360;2023-08-31T03:42:06;97173.88;;;19.93;56.57
74422;BME280;62856;51.446;8.360;2023-08-31T03:44:31;97183.63;;;19.91;55.99
74422;BME280;62856;51.446;8.360;2023-08-31T03:46:57;97178.16;;;19.91;56.04
74422;BME280;62856;51.446;8.360;2023-08-31T03:49:22;97185.56;;;19.90;56.01
74422;BME280;62856;51.446;8.360;2023-08-31T03:51:47;97183.19;;;19.89;56.03
74422;BME280;62856;51.446;8.360;2023-08-31T03:54:13;97189.09;;;19.91;55.98
74422;BME280;62856;51.446;8.360;2023-08-31T03:56:39;97193.78;;;19.90;56.35
74422;BME280;62856;51.446;8.360;2023-08-31T03:59:05;97193.78;;;19.90;55.83
74422;BME280;62856;51.446;8.360;2023-08-31T04:01:31;97198.03;;;19.88;56.04
74422;BME280;62856;51.446;8.360;2023-08-31T04:03:56;97203.50;;;19.88;55.87
74422;BME280;62856;51.446;8.360;2023-08-31T04:06:22;97204.28;;;19.88;55.85
74422;BME280;62856;51.446;8.360;2023-08-31T04:08:47;97201.50;;;19.85;55.69
74422;BME280;62856;51.446;8.360;2023-08-31T04:11:12;97212.50;;;19.88;55.61
74422;BME280;62856;51.446;8.360;2023-08-31T04:13:40;97215.59;;;19.87;56.15
74422;BME280;62856;51.446;8.360;2023-08-31T04:16:05;97221.44;;;19.85;55.97
74422;BME280;62856;51.446;8.360;2023-08-31T04:18:31;97224.16;;;19.85;56.01
74422;BME280;62856;51.446;8.360;2023-08-31T04:20:56;97226.09;;;19.85;55.75
74422;BME280;62856;51.446;8.360;2023-08-31T04:23:24;97224.50;;;19.84;55.66
74422;BME280;62856;51.446;8.360;2023-08-31T04:25:49;97226.84;;;19.82;55.63
74422;BME280;62856;51.446;8.360;2023-08-31T04:28:16;97231.94;;;19.83;55.51
74422;BME280;62856;51.446;8.360;2023-08-31T04:30:42;97235.44;;;19.84;55.62
74422;BME280;62856;51.446;8.360;2023-08-31T04:33:08;97228.03;;;19.84;55.54
74422;BME280;62856;51.446;8.360;2023-08-31T04:35:33;97228.78;;;19.81;54.90
74422;BME280;62856;51.446;8.360;2023-08-31T04:37:59;97233.88;;;19.83;54.23
74422;BME280;62856;51.446;8.360;2023-08-31T04:40:24;97233.88;;;19.83;53.77
74422;BME280;62856;51.446;8.360;2023-08-31T04:42:50;97237.78;;;19.82;54.68
74422;BME280;62856;51.446;8.360;2023-08-31T04:45:15;97242.03;;;19.79;55.11
74422;BME280;62856;51.446;8.360;2023-08-31T04:47:41;97231.44;;;19.78;55.34
74422;BME280;62856;51.446;8.360;2023-08-31T04:50:07;97239.66;;;19.78;55.61
74422;BME280;62856;51.446;8.360;2023-08-31T04:52:32;97236.94;;;19.78;55.81
74422;BME280;62856;51.446;8.360;2023-08-31T04:55:00;97242.41;;;19.78;56.03
74422;BME280;62856;51.446;8.360;2023-08-31T04:57:26;97240.44;;;19.78;56.06
74422;BME280;62856;51.446;8.360;2023-08-31T04:59:51;97243.97;;;19.79;55.83
74422;BME280;62856;51.446;8.360;2023-08-31T05:02:16;97243.97;;;19.79;56.02
74422;BME280;62856;51.446;8.360;2023-08-31T05:04:42;97243.97;;;19.79;55.34
74422;BME280;62856;51.446;8.360;2023-08-31T05:07:07;97251.03;;;19.80;55.97
74422;BME280;62856;51.446;8.360;2023-08-31T05:09:33;97245.91;;;19.78;55.72
74422;BME280;62856;51.446;8.360;2023-08-31T05:12:00;97252.97;;;19.79;55.62
74422;BME280;62856;51.446;8.360;2023-08-31T05:14:27;97247.50;;;19.79;55.34
74422;BME280;62856;51.446;8.360;2023-08-31T05:16:52;97247.88;;;19.78;55.47
74422;BME280;62856;51.446;8.360;2023-08-31T05:19:17;97258.44;;;19.79;55.06
74422;BME280;62856;51.446;8.360;2023-08-31T05:21:42;97253.78;;;19.80;55.48
74422;BME280;62856;51.446;8.360;2023-08-31T05:24:08;97260.81;;;19.81;55.46
74422;BME280;62856;51.446;8.360;2023-08-31T05:26:33;97274.03;;;19.79;55.23
74422;BME280;62856;51.446;8.360;2023-08-31T05:28:59;97269.38;;;19.79;55.37
74422;BME280;62856;51.446;8.360;2023-08-31T05:31:24;97284.56;;;19.77;55.27
74422;BME280;62856;51.446;8.360;2023-08-31T05:33:49;97286.16;;;19.78;55.41
74422;BME280;62856;51.446;8.360;2023-08-31T05:36:15;97276.34;;;19.77;55.56
74422;BME280;62856;51.446;8.360;2023-08-31T05:38:40;97279.09;;;19.77;55.64
74422;BME280;62856;51.446;8.360;2023-08-31T05:41:09;97284.91;;;19.75;55.83
74422;BME280;62856;51.446;8.360;2023-08-31T05:43:36;97283.78;;;19.76;55.43
74422;BME280;62856;51.446;8.360;2023-08-31T05:46:02;97277.16;;;19.77;55.89
74422;BME280;62856;51.446;8.360;2023-08-31T05:48:28;97277.16;;;19.77;55.80
74422;BME280;62856;51.446;8.360;2023-08-31T05:50:54;97283.78;;;19.76;55.46
74422;BME280;62856;51.446;8.360;2023-08-31T05:53:20;97281.81;;;19.77;56.13
74422;BME280;62856;51.446;8.360;2023-08-31T05:55:46;97279.88;;;19.77;56.00
74422;BME280;62856;51.446;8.360;2023-08-31T05:58:11;97281.81;;;19.77;55.61
74422;BME280;62856;51.446;8.360;2023-08-31T06:00:37;97277.94;;;19.78;55.83
74422;BME280;62856;51.446;8.360;2023-08-31T06:03:03;97272.84;;;19.76;55.65
74422;BME280;62856;51.446;8.360;2023-08-31T06:05:31;97272.75;;;19.73;54.86
74422;BME280;62856;51.446;8.360;2023-08-31T06:07:57;97278.16;;;19.69;54.64
74422;BME280;62856;51.446;8.360;2023-08-31T06:10:22;97280.06;;;19.65;54.41
74422;BME280;62856;51.446;8.360;2023-08-31T06:12:49;97280.75;;;19.62;55.21
74422;BME280;62856;51.446;8.360;2023-08-31T06:15:15;97293.66;;;19.62;54.62
74422;BME280;62856;51.446;8.360;2023-08-31T06:17:40;97299.38;;;19.57;54.71
74422;BME280;62856;51.446;8.360;2023-08-31T06:20:07;97300.91;;;19.54;54.89
74422;BME280;62856;51.446;8.360;2023-08-31T06:22:33;97301.28;;;19.53;54.78
74422;BME280;62856;51.446;8.360;2023-08-31T06:24:58;97307.53;;;19.53;54.66
74422;BME280;62856;51.446;8.360;2023-08-31T06:27:24;97306.31;;;19.51;54.60
74422;BME280;62856;51.446;8.360;2023-08-31T06:29:50;97305.06;;;19.48;54.91
74422;BME280;62856;51.446;8.360;2023-08-31T06:32:16;97306.66;;;19.49;54.76
74422;BME280;62856;51.446;8.360;2023-08-31T06:34:42;97305.44;;;19.47;54.71
74422;BME280;62856;51.446;8.360;2023-08-31T06:37:07;97313.66;;;19.47;54.65
74422;BME280;62856;51.446;8.360;2023-08-31T06:39:32;97310.91;;;19.47;54.99
74422;BME280;62856;51.446;8.360;2023-08-31T06:41:58;97310.91;;;19.47;54.60
74422;BME280;62856;51.446;8.360;2023-08-31T06:44:24;97316.38;;;19.47;54.51
74422;BME280;62856;51.446;8.360;2023-08-31T06:46:49;97314.78;;;19.46;54.87
74422;BME280;62856;51.446;8.360;2023-08-31T06:49:14;97316.38;;;19.47;54.81
74422;BME280;62856;51.446;8.360;2023-08-31T06:51:40;97315.22;;;19.48;54.75
74422;BME280;62856;51.446;8.360;2023-08-31T06:54:05;97315.22;;;19.48;54.32
74422;BME280;62856;51.446;8.360;2023-08-31T06:56:35;97319.53;;;19.49;54.46
74422;BME280;62856;51.446;8.360;2023-08-31T06:59:00;97322.72;;;19.51;54.12
74422;BME280;62856;51.446;8.360;2023-08-31T07:01:26;97318.81;;;19.52;54.75
74422;BME280;62856;51.446;8.360;2023-08-31T07:03:52;97320.41;;;19.53;54.36
74422;BME280;62856;51.446;8.360;2023-08-31T07:06:18;97333.72;;;19.54;54.39
74422;BME280;62856;51.446;8.360;2023-08-31T07:08:43;97322.72;;;19.51;54.61
74422;BME280;62856;51.446;8.360;2023-08-31T07:11:11;97329.47;;;19.57;54.27
74422;BME280;62856;51.446;8.360;2023-08-31T07:13:36;97332.63;;;19.59;53.82
74422;BME280;62856;51.446;8.360;2023-08-31T07:16:01;97329.09;;;19.58;53.88
74422;BME280;62856;51.446;8.360;2023-08-31T07:18:27;97334.56;;;19.58;54.30
74422;BME280;62856;51.446;8.360;2023-08-31T07:20:52;97340.84;;;19.59;54.36
74422;BME280;62856;51.446;8.360;2023-08-31T07:23:17;97335.38;;;19.59;54.55
74422;BME280;62856;51.446;8.360;2023-08-31T07:25:43;97336.25;;;19.63;53.77
74422;BME280;62856;51.446;8.360;2023-08-31T07:28:08;97338.25;;;19.66;54.05
74422;BME280;62856;51.446;8.360;2023-08-31T07:30:34;97338.69;;;19.68;53.70
74422;BME280;62856;51.446;8.360;2023-08-31T07:33:00;97328.91;;;19.67;53.52
74422;BME280;62856;51.446;8.360;2023-08-31T07:35:28;97338.69;;;19.68;53.57
74422;BME280;62856;51.446;8.360;2023-08-31T07:37:54;97340.78;;;19.74;53.40
74422;BME280;62856;51.446;8.360;2023-08-31T07:40:19;97333.72;;;19.73;53.59
74422;BME280;62856;51.446;8.360;2023-08-31T07:42:44;97349.44;;;19.76;53.70
74422;BME280;62856;51.446;8.360;2023-08-31T07:45:10;97339.25;;;19.77;53.54
74422;BME280;62856;51.446;8.360;2023-08-31T07:47:36;97343.59;;;19.78;53.23
74422;BME280;62856;51.446;8.360;2023-08-31T07:50:02;97345.47;;;19.74;53.16
74422;BME280;62856;51.446;8.360;2023-08-31T07:52:28;97347.81;;;19.75;53.42
74422;BME280;62856;51.446;8.360;2023-08-31T07:54:53;97347.91;;;19.79;53.43
74422;BME280;62856;51.446;8.360;2023-08-31T07:57:19;97358.91;;;19.82;53.34
74422;BME280;62856;51.446;8.360;2023-08-31T07:59:44;97350.63;;;19.79;53.42
74422;BME280;62856;51.446;8.360;2023-08-31T08:02:10;97363.59;;;19.82;53.58
74422;BME280;62856;51.446;8.360;2023-08-31T08:04:35;97358.84;;;19.79;53.33
74422;BME280;62856;51.446;8.360;2023-08-31T08:07:01;97363.25;;;19.83;53.07
74422;BME280;62856;51.446;8.360;2023-08-31T08:09:27;97364.88;;;19.88;53.31
74422;BME280;62856;51.446;8.360;2023-08-31T08:11:53;97357.53;;;19.92;52.92
74422;BME280;62856;51.446;8.360;2023-08-31T08:14:19;97362.94;;;19.88;53.20
74422;BME280;62856;51.446;8.360;2023-08-31T08:16:44;97363.44;;;19.94;53.17
74422;BME280;62856;51.446;8.360;2023-08-31T08:19:09;97364.59;;;19.93;52.94
74422;BME280;62856;51.446;8.360;2023-08-31T08:21:35;97365.81;;;19.95;53.25
74422;BME280;62856;51.446;8.360;2023-08-31T08:24:00;97361.16;;;19.96;53.29
74422;BME280;62856;51.446;8.360;2023-08-31T08:26:26;97369.00;;;19.97;53.09
74422;BME280;62856;51.446;8.360;2023-08-31T08:28:51;97368.25;;;20.00;53.29
74422;BME280;62856;51.446;8.360;2023-08-31T08:31:16;97372.22;;;20.03;53.11
74422;BME280;62856;51.446;8.360;2023-08-31T08:33:42;97375.25;;;19.98;53.08
74422;BME280;62856;51.446;8.360;2023-08-31T08:36:07;97379.56;;;19.99;53.53
74422;BME280;62856;51.446;8.360;2023-08-31T08:38:32;97373.22;;;19.95;53.21
74422;BME280;62856;51.446;8.360;2023-08-31T08:41:04;97379.13;;;19.97;53.44
74422;BME280;62856;51.446;8.360;2023-08-31T08:43:29;97376.84;;;19.99;53.34
74422;BME280;62856;51.446;8.360;2023-08-31T08:45:58;97373.28;;;19.98;53.50
74422;BME280;62856;51.446;8.360;2023-08-31T08:48:26;97368.63;;;19.99;53.51
74422;BME280;62856;51.446;8.360;2023-08-31T08:50:53;97373.47;;;20.05;53.13
74422;BME280;62856;51.446;8.360;2023-08-31T08:53:18;97383.53;;;20.01;53.53
74422;BME280;62856;51.446;8.360;2023-08-31T08:55:43;97382.66;;;19.97;53.23
74422;BME280;62856;51.446;8.360;2023-08-31T08:58:09;97386.13;;;19.94;53.70
74422;BME280;62856;51.446;8.360;2023-08-31T09:00:35;97385.03;;;19.99;53.40
74422;BME280;62856;51.446;8.360;2023-08-31T09:03:01;97379.19;;;20.00;53.50
74422;BME280;62856;51.446;8.360;2023-08-31T09:05:31;97372.22;;;20.03;53.42
74422;BME280;62856;51.446;8.360;2023-08-31T09:08:01;97380.44;;;20.03;53.17
74422;BME280;62856;51.446;8.360;2023-08-31T09:10:37;97374.91;;;19.99;53.27
74422;BME280;62856;51.446;8.360;2023-08-31T09:13:07;97389.44;;;20.03;53.64
74422;BME280;62856;51.446;8.360;2023-08-31T09:18:06;97377.63;;;19.99;53.70
74422;BME280;62856;51.446;8.360;2023-08-31T09:20:31;97378.44;;;20.00;53.89
74422;BME280;62856;51.446;8.360;2023-08-31T09:22:57;97381.88;;;19.97;53.87
74422;BME280;62856;51.446;8.360;2023-08-31T09:25:23;97384.53;;;19.93;53.65
74422;BME280;62856;51.446;8.360;2023-08-31T09:27:48;97382.25;;;19.95;53.73
74422;BME280;62856;51.446;8.360;2023-08-31T09:30:13;97384.91;;;19.92;54.06
74422;BME280;62856;51.446;8.360;2023-08-31T09:32:39;97383.75;;;19.93;53.63
74422;BME280;62856;51.446;8.360;2023-08-31T09:35:10;97379.72;;;19.87;53.82
74422;BME280;62856;51.446;8.360;2023-08-31T09:37:36;97393.75;;;19.85;54.07
74422;BME280;62856;51.446;8.360;2023-08-31T09:40:03;97394.69;;;19.93;53.72
74422;BME280;62856;51.446;8.360;2023-08-31T09:42:37;97390.94;;;20.01;53.51
74422;BME280;62856;51.446;8.360;2023-08-31T09:45:04;97383.97;;;20.03;53.32
74422;BME280;62856;51.446;8.360;2023-08-31T09:47:29;97387.97;;;20.09;53.39
74422;BME280;62856;51.446;8.360;2023-08-31T09:49:56;97392.38;;;20.14;52.89
74422;BME280;62856;51.446;8.360;2023-08-31T09:52:22;97393.97;;;20.15;53.31
74422;BME280;62856;51.446;8.360;2023-08-31T09:54:50;97385.25;;;20.09;53.03
74422;BME280;62856;51.446;8.360;2023-08-31T09:57:17;97391.44;;;20.06;53.64
74422;BME280;62856;51.446;8.360;2023-08-31T09:59:43;97391.00;;;20.04;53.64
74422;BME280;62856;51.446;8.360;2023-08-31T10:02:11;97397.59;;;20.00;53.84
74422;BME280;62856;51.446;8.360;2023-08-31T10:04:38;97390.59;;;20.02;53.40
74422;BME280;62856;51.446;8.360;2023-08-31T10:07:04;97393.69;;;20.01;53.91
74422;BME280;62856;51.446;8.360;2023-08-31T10:09:31;97399.28;;;20.08;53.26
74422;BME280;62856;51.446;8.360;2023-08-31T10:11:57;97394.25;;;20.10;53.02
74422;BME280;62856;51.446;8.360;2023-08-31T10:14:23;97393.03;;;20.07;53.27
74422;BME280;62856;51.446;8.360;2023-08-31T10:16:49;97395.81;;;20.11;53.14
74422;BME280;62856;51.446;8.360;2023-08-31T10:19:15;97409.94;;;20.13;53.13
74422;BME280;62856;51.446;8.360;2023-08-31T10:21:40;97402.97;;;20.15;53.10
74422;BME280;62856;51.446;8.360;2023-08-31T10:24:06;97405.44;;;20.20;52.54
74422;BME280;62856;51.446;8.360;2023-08-31T10:26:32;97416.03;;;20.22;52.60
74422;BME280;62856;51.446;8.360;2023-08-31T10:28:59;97407.47;;;20.23;52.59
74422;BME280;62856;51.446;8.360;2023-08-31T10:31:32;97408.66;;;20.26;52.57
74422;BME280;62856;51.446;8.360;2023-08-31T10:36:44;97409.97;;;20.32;52.19
74422;BME280;62856;51.446;8.360;2023-08-31T10:39:16;97401.03;;;20.35;52.31
74422;BME280;62856;51.446;8.360;2023-08-31T10:41:42;97394.75;;;20.34;51.90
74422;BME280;62856;51.446;8.360;2023-08-31T10:44:24;97403.47;;;20.40;52.15
74422;BME280;62856;51.446;8.360;2023-08-31T10:46:51;97403.88;;;20.42;51.97
74422;BME280;62856;51.446;8.360;2023-08-31T10:49:19;97397.59;;;20.38;52.39
74422;BME280;62856;51.446;8.360;2023-08-31T10:51:47;97391.75;;;20.40;52.08
74422;BME280;62856;51.446;8.360;2023-08-31T10:54:23;97395.34;;;20.44;52.01
74422;BME280;62856;51.446;8.360;2023-08-31T10:59:46;97398.28;;;20.35;52.28
74422;BME280;62856;51.446;8.360;2023-08-31T11:02:33;97400.16;;;20.31;52.23
74422;BME280;62856;51.446;8.360;2023-08-31T11:05:23;97393.84;;;20.27;52.11
74422;BME280;62856;51.446;8.360;2023-08-31T11:07:49;97386.34;;;20.24;52.19
74422;BME280;62856;51.446;8.360;2023-08-31T11:12:46;97400.09;;;20.27;52.02
74422;BME280;62856;51.446;8.360;2023-08-31T11:15:13;97398.88;;;20.25;52.16
74422;BME280;62856;51.446;8.360;2023-08-31T11:17:43;97396.22;;;20.28;51.88
74422;BME280;62856;51.446;8.360;2023-08-31T11:20:14;97401.63;;;20.25;52.24
74422;BME280;62856;51.446;8.360;2023-08-31T11:22:41;97401.19;;;20.23;52.46
74422;BME280;62856;51.446;8.360;2023-08-31T11:25:09;97398.47;;;20.23;52.21
74422;BME280;62856;51.446;8.360;2023-08-31T11:27:34;97403.13;;;20.22;52.46
74422;BME280;62856;51.446;8.360;2023-08-31T11:30:00;97404.66;;;20.20;52.23
74422;BME280;62856;51.446;8.360;2023-08-31T11:32:25;97402.63;;;20.17;52.29
74422;BME280;62856;51.446;8.360;2023-08-31T11:34:50;97405.38;;;20.17;52.33
74422;BME280;62856;51.446;8.360;2023-08-31T11:37:16;97414.09;;;20.22;51.75
74422;BME280;62856;51.446;8.360;2023-08-31T11:39:52;97403.78;;;20.16;52.19
74422;BME280;62856;51.446;8.360;2023-08-31T11:42:19;97397.84;;;20.14;52.03
74422;BME280;62856;51.446;8.360;2023-08-31T11:44:49;97405.69;;;20.15;52.23
74422;BME280;62856;51.446;8.360;2023-08-31T11:47:15;97397.06;;;20.13;52.37
74422;BME280;62856;51.446;8.360;2023-08-31T11:49:45;97403.34;;;20.14;52.15
74422;BME280;62856;51.446;8.360;2023-08-31T11:52:11;97409.25;;;20.16;51.72
74422;BME280;62856;51.446;8.360;2023-08-31T11:54:41;97411.97;;;20.16;51.81
74422;BME280;62856;51.446;8.360;2023-08-31T11:57:07;97415.94;;;20.18;51.67
74422;BME280;62856;51.446;8.360;2023-08-31T11:59:37;97406.59;;;20.19;52.01
74422;BME280;62856;51.446;8.360;2023-08-31T12:02:06;97405.38;;;20.17;51.53
74422;BME280;62856;51.446;8.360;2023-08-31T12:04:32;97414.00;;;20.19;51.99
74422;BME280;62856;51.446;8.360;2023-08-31T12:07:02;97410.84;;;20.17;52.18
74422;BME280;62856;51.446;8.360;2023-08-31T12:09:32;97396.31;;;20.16;52.55
74422;BME280;62856;51.446;8.360;2023-08-31T12:11:57;97417.00;;;20.14;52.52
74422;BME280;62856;51.446;8.360;2023-08-31T12:14:24;97417.00;;;20.14;52.29
74422;BME280;62856;51.446;8.360;2023-08-31T12:16:51;97423.28;;;20.14;52.52
74422;BME280;62856;51.446;8.360;2023-08-31T12:19:17;97419.75;;;20.14;52.51
74422;BME280;62856;51.446;8.360;2023-08-31T12:21:44;97419.31;;;20.12;52.64
74422;BME280;62856;51.446;8.360;2023-08-31T12:24:10;97416.94;;;20.10;52.68
74422;BME280;62856;51.446;8.360;2023-08-31T12:26:35;97419.69;;;20.10;52.58
74422;BME280;62856;51.446;8.360;2023-08-31T12:29:01;97420.81;;;20.09;52.41
74422;BME280;62856;51.446;8.360;2023-08-31T12:31:29;97423.19;;;20.11;52.23
74422;BME280;62856;51.446;8.360;2023-08-31T12:33:55;97421.63;;;20.10;52.91
74422;BME280;62856;51.446;8.360;2023-08-31T12:36:20;97414.97;;;20.11;53.09
74422;BME280;62856;51.446;8.360;2023-08-31T12:38:46;97409.50;;;20.11;52.77
74422;BME280;62856;51.446;8.360;2023-08-31T12:41:11;97408.81;;;20.14;53.16
74422;BME280;62856;51.446;8.360;2023-08-31T12:43:37;97406.06;;;20.14;52.85
74422;BME280;62856;51.446;8.360;2023-08-31T12:46:03;97393.19;;;20.14;53.19
74422;BME280;62856;51.446;8.360;2023-08-31T12:48:32;97404.53;;;20.16;53.31
74422;BME280;62856;51.446;8.360;2023-08-31T12:50:58;97406.16;;;20.17;53.16
74422;BME280;62856;51.446;8.360;2023-08-31T12:53:23;97394.84;;;20.19;53.39
74422;BME280;62856;51.446;8.360;2023-08-31T12:55:49;97392.13;;;20.19;53.46
74422;BME280;62856;51.446;8.360;2023-08-31T12:58:15;97393.72;;;20.20;53.47
74422;BME280;62856;51.446;8.360;2023-08-31T13:00:41;97391.22;;;20.15;53.47
74422;BME280;62856;51.446;8.360;2023-08-31T13:03:08;97390.97;;;20.20;53.52
74422;BME280;62856;51.446;8.360;2023-08-31T13:05:34;97403.06;;;20.19;53.12
74422;BME280;62856;51.446;8.360;2023-08-31T13:07:59;97406.59;;;20.19;53.21
74422;BME280;62856;51.446;8.360;2023-08-31T13:10:24;97399.19;;;20.20;53.09
74422;BME280;62856;51.446;8.360;2023-08-31T13:12:50;97389.00;;;20.20;52.91
74422;BME280;62856;51.446;8.360;2023-08-31T13:15:15;97395.66;;;20.19;52.74